createdAt,value
2022-11-15T00:01:10.143Z,78.47
2022-11-15T00:03:55.645Z,78.21
2022-11-15T00:06:40.849Z,78.52
2022-11-15T00:09:26.037Z,78.15
2022-11-15T00:12:11.380Z,78.36
2022-11-15T00:14:56.550Z,78.66
2022-11-15T00:17:41.607Z,78.79
2022-11-15T00:20:27.101Z,78.61
2022-11-15T00:23:12.590Z,78.63
2022-11-15T00:25:59.122Z,78.58
2022-11-15T00:28:45.005Z,78.72
2022-11-15T00:31:30.393Z,78.36
2022-11-15T00:34:15.747Z,78.03
2022-11-15T00:37:01.023Z,78.36
2022-11-15T00:39:46.543Z,78.08
2022-11-15T00:42:32.132Z,78.02
2022-11-15T00:45:17.355Z,78.00
2022-11-15T00:48:02.730Z,77.95
2022-11-15T00:50:49.038Z,78.02
2022-11-15T00:53:34.554Z,77.95
2022-11-15T00:56:19.941Z,78.22
2022-11-15T00:59:05.441Z,78.13
2022-11-15T01:01:50.603Z,77.62
2022-11-15T01:04:36.048Z,77.86
2022-11-15T01:07:21.587Z,77.49
2022-11-15T01:10:07.160Z,77.49
2022-11-15T01:12:52.904Z,77.60
2022-11-15T01:15:42.369Z,77.74
2022-11-15T01:18:27.431Z,77.58
2022-11-15T01:21:16.252Z,77.68
2022-11-15T01:24:01.942Z,77.25
2022-11-15T01:26:47.318Z,77.23
2022-11-15T01:29:32.800Z,77.16
2022-11-15T01:32:18.952Z,77.48
2022-11-15T01:35:04.654Z,77.28
2022-11-15T01:37:50.089Z,77.19
2022-11-15T01:40:35.436Z,77.12
2022-11-15T01:43:30.976Z,77.88
2022-11-15T01:46:22.359Z,77.21
2022-11-15T01:49:15.220Z,77.09
2022-11-15T01:52:03.289Z,77.14
2022-11-15T01:54:53.929Z,76.80
2022-11-15T01:57:43.444Z,77.00
2022-11-15T02:00:30.739Z,77.04
2022-11-15T02:03:16.854Z,76.88
2022-11-15T02:06:04.732Z,77.11
2022-11-15T02:08:51.086Z,76.92
2022-11-15T02:11:37.055Z,77.08
2022-11-15T02:14:26.163Z,77.13
2022-11-15T02:17:14.288Z,77.11
2022-11-15T02:20:14.429Z,76.96
2022-11-15T02:23:10.992Z,77.37
2022-11-15T02:26:20.658Z,77.42
2022-11-15T02:29:11.283Z,77.33
2022-11-15T02:32:14.765Z,77.43
2022-11-15T02:35:07.582Z,77.56
2022-11-15T02:37:58.381Z,77.52
2022-11-15T02:40:59.948Z,77.56
2022-11-15T02:43:58.571Z,77.46
2022-11-15T02:47:11.015Z,77.77
2022-11-15T02:50:02.087Z,77.78
2022-11-15T02:52:49.735Z,77.43
2022-11-15T02:55:38.166Z,77.69
2022-11-15T02:58:51.198Z,77.59
2022-11-15T03:01:54.504Z,77.72
2022-11-15T03:04:48.831Z,77.86
2022-11-15T03:07:55.857Z,77.86
2022-11-15T03:11:14.791Z,77.75
2022-11-15T03:14:09.591Z,77.78
2022-11-15T03:17:14.730Z,77.57
2022-11-15T03:20:02.479Z,77.50
2022-11-15T03:22:50.305Z,77.84
2022-11-15T03:25:41.815Z,77.61
2022-11-15T03:28:37.723Z,77.30
2022-11-15T03:31:50.062Z,77.31
2022-11-15T03:34:54.784Z,77.23
2022-11-15T03:37:47.216Z,77.52
2022-11-15T03:40:47.241Z,77.36
2022-11-15T03:43:47.769Z,77.17
2022-11-15T03:46:38.621Z,76.96
2022-11-15T03:49:32.402Z,76.58
2022-11-15T03:52:22.208Z,76.28
2022-11-15T03:55:11.530Z,75.71
2022-11-15T03:57:59.793Z,75.71
2022-11-15T04:00:45.327Z,76.57
2022-11-15T04:03:30.931Z,76.88
2022-11-15T04:06:16.610Z,76.57
2022-11-15T04:09:01.886Z,76.75
2022-11-15T04:11:47.382Z,76.67
2022-11-15T04:14:32.808Z,76.60
2022-11-15T04:17:18.078Z,76.64
2022-11-15T04:20:30.893Z,76.57
2022-11-15T04:23:36.818Z,76.50
2022-11-15T04:26:24.044Z,76.46
2022-11-15T04:29:27.592Z,76.62
2022-11-15T04:32:13.016Z,76.71
2022-11-15T04:34:58.253Z,76.78
2022-11-15T04:37:48.985Z,76.59
2022-11-15T04:40:36.069Z,76.44
2022-11-15T04:43:21.482Z,76.28
2022-11-15T04:46:06.810Z,76.29
2022-11-15T04:48:58.020Z,76.40
2022-11-15T04:51:43.800Z,76.13
2022-11-15T04:54:29.133Z,76.11
2022-11-15T04:57:15.087Z,76.48
2022-11-15T05:00:00.326Z,76.45
2022-11-15T05:03:04.372Z,75.88
2022-11-15T05:05:49.761Z,76.26
2022-11-15T05:08:35.346Z,76.13
2022-11-15T05:11:21.489Z,75.88
2022-11-15T05:14:06.584Z,75.66
2022-11-15T05:16:51.752Z,75.80
2022-11-15T05:19:37.955Z,75.99
2022-11-15T05:22:23.035Z,75.34
2022-11-15T05:25:08.592Z,75.30
2022-11-15T05:27:53.985Z,75.65
2022-11-15T05:30:39.404Z,75.42
2022-11-15T05:33:24.903Z,75.35
2022-11-15T05:36:18.585Z,75.20
2022-11-15T05:39:05.471Z,75.16
2022-11-15T05:41:55.666Z,75.22
2022-11-15T05:44:45.471Z,75.12
2022-11-15T05:47:31.583Z,75.31
2022-11-15T05:50:19.035Z,75.42
2022-11-15T05:53:05.576Z,75.65
2022-11-15T05:55:51.447Z,75.26
2022-11-15T05:58:38.110Z,75.55
2022-11-15T06:01:25.775Z,75.51
2022-11-15T06:04:11.208Z,75.39
2022-11-15T06:06:56.505Z,75.57
2022-11-15T06:09:41.955Z,75.49
2022-11-15T06:12:27.195Z,75.57
2022-11-15T06:15:12.574Z,75.67
2022-11-15T06:18:00.985Z,75.77
2022-11-15T06:20:46.082Z,75.76
2022-11-15T06:23:35.384Z,75.69
2022-11-15T06:26:20.836Z,75.50
2022-11-15T06:29:06.387Z,75.75
2022-11-15T06:31:51.526Z,75.54
2022-11-15T06:34:36.988Z,75.46
2022-11-15T06:37:22.160Z,75.60
2022-11-15T06:40:09.482Z,75.54
2022-11-15T06:43:01.710Z,75.43
2022-11-15T06:45:46.696Z,75.74
2022-11-15T06:48:33.556Z,75.78
2022-11-15T06:51:19.017Z,75.73
2022-11-15T06:54:04.136Z,75.67
2022-11-15T06:56:49.487Z,75.62
2022-11-15T06:59:39.339Z,75.78
2022-11-15T07:02:25.732Z,75.43
2022-11-15T07:05:11.981Z,75.54
2022-11-15T07:07:58.564Z,75.49
2022-11-15T07:10:43.577Z,75.71
2022-11-15T07:13:30.669Z,75.69
2022-11-15T07:16:16.474Z,75.62
2022-11-15T07:19:02.156Z,75.47
2022-11-15T07:21:47.666Z,75.43
2022-11-15T07:24:33.118Z,75.36
2022-11-15T07:27:18.830Z,75.36
2022-11-15T07:30:05.194Z,75.44
2022-11-15T07:33:01.688Z,75.31
2022-11-15T07:35:49.984Z,75.16
2022-11-15T07:38:42.215Z,75.15
2022-11-15T07:41:27.985Z,74.96
2022-11-15T07:44:13.150Z,74.90
2022-11-15T07:46:59.029Z,75.03
2022-11-15T07:49:44.408Z,75.00
2022-11-15T07:52:29.580Z,74.92
2022-11-15T07:55:14.943Z,75.25
2022-11-15T07:58:03.340Z,75.12
2022-11-15T08:00:48.900Z,75.15
2022-11-15T08:03:34.725Z,74.97
2022-11-15T08:06:20.506Z,74.61
2022-11-15T08:09:05.962Z,74.64
2022-11-15T08:11:51.228Z,74.07
2022-11-15T08:14:36.722Z,74.10
2022-11-15T08:17:21.984Z,74.05
2022-11-15T08:20:08.294Z,74.01
2022-11-15T08:22:53.483Z,73.85
2022-11-15T08:25:39.221Z,73.47
2022-11-15T08:28:24.542Z,73.66
2022-11-15T08:31:18.685Z,73.57
2022-11-15T08:34:05.496Z,73.37
2022-11-15T08:36:50.789Z,73.22
2022-11-15T08:39:35.946Z,72.62
2022-11-15T08:42:21.313Z,72.24
2022-11-15T08:45:07.863Z,71.96
2022-11-15T08:47:54.669Z,71.51
2022-11-15T08:50:40.335Z,71.17
2022-11-15T08:53:25.893Z,70.44
2022-11-15T08:56:13.175Z,69.74
2022-11-15T08:58:58.500Z,69.22
2022-11-15T09:01:43.683Z,68.25
2022-11-15T09:04:28.797Z,68.45
2022-11-15T09:07:14.763Z,68.50
2022-11-15T09:09:59.987Z,68.65
2022-11-15T09:12:45.275Z,68.71
2022-11-15T09:15:30.387Z,68.73
2022-11-15T09:18:15.597Z,68.84
2022-11-15T09:21:03.104Z,68.58
2022-11-15T09:23:51.290Z,68.56
2022-11-15T09:26:36.761Z,68.19
2022-11-15T09:29:22.261Z,67.41
2022-11-15T09:32:07.612Z,67.02
2022-11-15T09:34:54.122Z,66.78
2022-11-15T09:37:39.355Z,65.92
2022-11-15T09:40:25.454Z,64.70
2022-11-15T09:43:38.202Z,63.68
2022-11-15T09:46:46.810Z,62.41
2022-11-15T09:49:43.198Z,60.79
2022-11-15T09:52:19.433Z,59.97
2022-11-15T09:54:54.917Z,58.96
2022-11-15T09:57:44.111Z,58.94
2022-11-15T10:03:14.765Z,58.89
2022-11-15T10:05:47.184Z,58.65
2022-11-15T10:08:38.296Z,58.45
2022-11-15T10:11:36.237Z,57.86
2022-11-15T10:14:11.064Z,58.50
2022-11-15T10:17:08.948Z,57.83
2022-11-15T10:19:53.472Z,57.21
2022-11-15T10:22:34.980Z,56.98
2022-11-15T10:25:22.234Z,56.61
2022-11-15T10:27:58.974Z,56.68
2022-11-15T10:30:33.125Z,56.96
2022-11-15T10:33:12.875Z,57.42
2022-11-15T10:35:39.709Z,57.38
2022-11-15T10:38:11.866Z,57.33
2022-11-15T10:40:40.792Z,56.79
2022-11-15T10:43:10.109Z,57.05
2022-11-15T10:45:37.932Z,56.37
2022-11-15T10:48:13.514Z,55.70
2022-11-15T10:50:43.230Z,56.08
2022-11-15T10:53:18.775Z,55.21
2022-11-15T10:55:49.395Z,54.85
2022-11-15T10:58:31.588Z,54.00
2022-11-15T11:01:13.902Z,51.99
2022-11-15T11:03:42.366Z,50.68
2022-11-15T11:06:18.304Z,48.86
2022-11-15T11:08:55.529Z,49.59
2022-11-15T11:11:22.927Z,50.58
2022-11-15T11:13:50.183Z,50.90
2022-11-15T11:16:38.890Z,51.10
2022-11-15T11:19:19.544Z,50.37
2022-11-15T11:21:59.673Z,50.37
2022-11-15T11:25:02.081Z,51.38
2022-11-15T11:27:43.064Z,50.61
2022-11-15T11:30:12.788Z,51.12
2022-11-15T11:32:54.971Z,50.75
2022-11-15T11:35:28.264Z,50.89
2022-11-15T11:38:16.334Z,50.55
2022-11-15T11:40:56.094Z,51.83
2022-11-15T11:43:39.390Z,51.86
2022-11-15T11:46:22.127Z,52.00
2022-11-15T11:49:10.961Z,52.26
2022-11-15T11:51:53.776Z,51.50
2022-11-15T11:54:26.639Z,51.57
2022-11-15T11:56:54.963Z,51.40
2022-11-15T11:59:40.014Z,51.16
2022-11-15T12:02:18.314Z,51.09
2022-11-15T12:04:52.531Z,50.56
2022-11-15T12:07:29.038Z,49.92
2022-11-15T12:10:25.357Z,49.94
2022-11-15T12:13:03.149Z,49.46
2022-11-15T12:15:36.637Z,49.86
2022-11-15T12:18:03.728Z,50.03
2022-11-15T12:20:37.685Z,50.49
2022-11-15T12:23:20.438Z,50.91
2022-11-15T12:26:05.445Z,49.92
2022-11-15T12:29:06.481Z,50.64
2022-11-15T12:31:40.715Z,49.96
2022-11-15T12:34:44.554Z,50.13
2022-11-15T12:37:39.202Z,49.49
2022-11-15T12:40:24.553Z,49.67
2022-11-15T12:43:09.412Z,49.86
2022-11-15T12:45:39.423Z,50.15
2022-11-15T12:48:18.310Z,50.31
2022-11-15T12:50:51.143Z,50.75
2022-11-15T12:53:23.823Z,50.82
2022-11-15T12:56:05.632Z,50.99
2022-11-15T12:58:43.889Z,51.51
2022-11-15T13:01:31.962Z,50.99
2022-11-15T13:04:14.012Z,51.13
2022-11-15T13:06:45.053Z,50.94
2022-11-15T13:09:34.632Z,51.04
2022-11-15T13:12:23.512Z,50.47
2022-11-15T13:14:52.035Z,50.53
2022-11-15T13:17:31.175Z,51.44
2022-11-15T13:20:11.419Z,51.05
2022-11-15T13:22:55.281Z,51.00
2022-11-15T13:25:24.956Z,50.87
2022-11-15T13:27:52.197Z,50.97
2022-11-15T13:30:25.383Z,51.97
2022-11-15T13:32:53.724Z,51.07
2022-11-15T13:35:28.757Z,51.14
2022-11-15T13:37:56.918Z,51.64
2022-11-15T13:40:31.036Z,51.69
2022-11-15T13:42:59.248Z,51.38
2022-11-15T13:45:27.802Z,51.74
2022-11-15T13:47:57.060Z,51.95
2022-11-15T13:50:34.761Z,52.44
2022-11-15T13:53:05.259Z,52.60
2022-11-15T13:55:33.945Z,52.81
2022-11-15T13:58:07.318Z,52.91
2022-11-15T14:00:42.716Z,53.18
2022-11-15T14:03:21.638Z,53.56
2022-11-15T14:06:07.676Z,53.67
2022-11-15T14:08:36.460Z,53.84
2022-11-15T14:11:12.947Z,53.64
2022-11-15T14:13:39.889Z,54.35
2022-11-15T14:16:19.320Z,54.00
2022-11-15T14:18:50.343Z,53.76
2022-11-15T14:21:18.171Z,54.01
2022-11-15T14:23:45.512Z,53.84
2022-11-15T14:26:28.179Z,54.21
2022-11-15T14:28:54.888Z,54.73
2022-11-15T14:31:21.996Z,54.92
2022-11-15T14:33:49.376Z,55.03
2022-11-15T14:36:17.404Z,55.33
2022-11-15T14:38:44.814Z,55.50
2022-11-15T14:41:19.273Z,55.58
2022-11-15T14:43:45.995Z,55.86
2022-11-15T14:46:12.635Z,55.87
2022-11-15T14:48:39.285Z,56.01
2022-11-15T14:51:14.644Z,56.50
2022-11-15T14:53:43.524Z,56.54
2022-11-15T14:56:10.928Z,57.21
2022-11-15T14:58:37.590Z,57.27
2022-11-15T15:01:13.984Z,57.44
2022-11-15T15:03:40.836Z,57.75
2022-11-15T15:06:12.367Z,57.77
2022-11-15T15:08:43.360Z,57.83
2022-11-15T15:11:39.565Z,58.26
2022-11-15T15:14:06.275Z,58.51
2022-11-15T15:16:32.987Z,58.34
2022-11-15T15:18:59.744Z,58.67
2022-11-15T15:21:33.584Z,59.09
2022-11-15T15:24:03.965Z,58.96
2022-11-15T15:26:30.791Z,58.91
2022-11-15T15:28:57.772Z,59.10
2022-11-15T15:31:24.521Z,59.04
2022-11-15T15:33:51.206Z,59.45
2022-11-15T15:36:19.462Z,59.71
2022-11-15T15:38:47.600Z,59.77
2022-11-15T15:41:15.995Z,59.71
2022-11-15T15:43:42.794Z,60.14
2022-11-15T15:46:12.982Z,60.09
2022-11-15T15:48:40.543Z,60.35
2022-11-15T15:51:15.462Z,60.85
2022-11-15T15:53:45.435Z,60.52
2022-11-15T15:56:12.218Z,61.12
2022-11-15T15:58:38.968Z,61.32
2022-11-15T16:01:05.847Z,61.58
2022-11-15T16:03:32.638Z,61.56
2022-11-15T16:05:59.573Z,62.19
2022-11-15T16:08:42.402Z,62.57
2022-11-15T16:11:10.480Z,63.23
2022-11-15T16:13:37.241Z,63.17
2022-11-15T16:16:03.989Z,63.70
2022-11-15T16:18:30.945Z,63.77
2022-11-15T16:20:58.031Z,64.05
2022-11-15T16:23:25.421Z,63.99
2022-11-15T16:25:56.376Z,64.30
2022-11-15T16:28:28.863Z,63.88
2022-11-15T16:31:11.432Z,64.52
2022-11-15T16:33:39.063Z,64.34
2022-11-15T16:36:07.653Z,64.54
2022-11-15T16:38:34.765Z,64.22
2022-11-15T16:41:02.006Z,64.29
2022-11-15T16:43:28.685Z,64.46
2022-11-15T16:45:55.365Z,64.30
2022-11-15T16:48:26.981Z,64.60
2022-11-15T16:50:58.290Z,65.03
2022-11-15T16:53:26.564Z,64.90
2022-11-15T16:55:54.555Z,64.59
2022-11-15T16:58:21.313Z,65.18
2022-11-15T17:00:56.358Z,64.90
2022-11-15T17:03:24.323Z,64.72
2022-11-15T17:05:51.600Z,64.70
2022-11-15T17:08:20.719Z,64.96
2022-11-15T17:10:47.421Z,65.03
2022-11-15T17:13:14.780Z,64.75
2022-11-15T17:15:41.536Z,65.57
2022-11-15T17:18:11.889Z,65.59
2022-11-15T17:20:40.640Z,65.21
2022-11-15T17:23:14.234Z,65.47
2022-11-15T17:25:41.324Z,65.59
2022-11-15T17:28:08.045Z,65.81
2022-11-15T17:30:35.720Z,66.28
2022-11-15T17:33:02.412Z,66.34
2022-11-15T17:35:29.098Z,67.11
2022-11-15T17:37:55.815Z,66.71
2022-11-15T17:40:22.568Z,67.44
2022-11-15T17:42:49.506Z,67.53
2022-11-15T17:45:16.303Z,67.80
2022-11-15T17:47:42.964Z,68.28
2022-11-15T17:50:10.044Z,68.15
2022-11-15T17:52:36.872Z,68.36
2022-11-15T17:55:03.775Z,68.28
2022-11-15T17:57:30.489Z,68.20
2022-11-15T17:59:57.278Z,68.37
2022-11-15T18:02:23.922Z,69.07
2022-11-15T18:04:50.593Z,68.85
2022-11-15T18:07:17.360Z,68.95
2022-11-15T18:09:44.378Z,69.08
2022-11-15T18:12:12.082Z,69.01
2022-11-15T18:14:39.275Z,69.15
2022-11-15T18:17:06.323Z,69.56
2022-11-15T18:19:33.562Z,69.61
2022-11-15T18:22:01.868Z,69.57
2022-11-15T18:24:30.785Z,69.84
2022-11-15T18:26:59.120Z,69.52
2022-11-15T18:29:25.905Z,69.86
2022-11-15T18:31:56.161Z,70.18
2022-11-15T18:34:25.522Z,70.10
2022-11-15T18:36:53.312Z,69.92
2022-11-15T18:39:20.370Z,70.30
2022-11-15T18:41:47.955Z,70.62
2022-11-15T18:44:15.530Z,70.52
2022-11-15T18:46:44.901Z,70.27
2022-11-15T18:49:13.713Z,70.23
2022-11-15T18:51:43.748Z,70.20
2022-11-15T18:54:12.449Z,70.82
2022-11-15T18:56:40.110Z,70.69
2022-11-15T18:59:08.253Z,70.70
2022-11-15T19:01:37.530Z,70.62
2022-11-15T19:04:24.529Z,70.43
2022-11-15T19:06:51.703Z,70.37
2022-11-15T19:09:19.482Z,70.40
2022-11-15T19:11:48.220Z,70.67
2022-11-15T19:14:16.918Z,70.97
2022-11-15T19:16:46.186Z,71.16
2022-11-15T19:19:15.647Z,71.43
2022-11-15T19:21:44.285Z,71.29
2022-11-15T19:24:11.366Z,71.59
2022-11-15T19:26:38.848Z,71.63
2022-11-15T19:29:07.584Z,71.58
2022-11-15T19:31:34.711Z,71.83
2022-11-15T19:34:04.444Z,71.64
2022-11-15T19:36:35.329Z,71.78
2022-11-15T19:39:05.553Z,72.14
2022-11-15T19:41:32.535Z,72.23
2022-11-15T19:43:59.332Z,72.14
2022-11-15T19:46:26.927Z,71.88
2022-11-15T19:48:54.344Z,71.75
2022-11-15T19:51:24.509Z,72.02
2022-11-15T19:53:57.965Z,72.32
2022-11-15T19:56:24.998Z,72.26
2022-11-15T19:58:53.888Z,72.25
2022-11-15T20:01:23.456Z,72.43
2022-11-15T20:03:53.964Z,72.48
2022-11-15T20:06:23.905Z,72.95
2022-11-15T20:08:50.839Z,72.46
2022-11-15T20:11:18.438Z,73.00
2022-11-15T20:13:45.346Z,73.22
2022-11-15T20:16:17.864Z,73.38
2022-11-15T20:18:45.347Z,73.15
2022-11-15T20:21:12.461Z,73.51
2022-11-15T20:23:39.416Z,73.36
2022-11-15T20:26:07.358Z,73.26
2022-11-15T20:28:36.671Z,73.35
2022-11-15T20:31:04.156Z,73.36
2022-11-15T20:33:30.836Z,73.80
2022-11-15T20:35:57.616Z,73.79
2022-11-15T20:38:24.590Z,74.14
2022-11-15T20:40:54.794Z,73.75
2022-11-15T20:43:24.237Z,73.58
2022-11-15T20:45:50.900Z,73.70
2022-11-15T20:48:18.069Z,73.87
2022-11-15T20:50:47.021Z,73.88
2022-11-15T20:53:17.232Z,73.92
2022-11-15T20:55:49.360Z,73.84
2022-11-15T20:58:16.989Z,73.34
2022-11-15T21:00:45.337Z,73.81
2022-11-15T21:03:14.127Z,74.22
2022-11-15T21:05:43.817Z,74.26
2022-11-15T21:08:12.445Z,74.60
2022-11-15T21:10:59.337Z,74.78
2022-11-15T21:13:26.801Z,74.97
2022-11-15T21:15:57.728Z,74.80
2022-11-15T21:18:25.206Z,74.78
2022-11-15T21:20:53.647Z,75.22
2022-11-15T21:23:20.954Z,75.31
2022-11-15T21:25:52.417Z,75.40
2022-11-15T21:28:19.248Z,75.08
2022-11-15T21:31:12.331Z,75.34
2022-11-15T21:33:39.060Z,75.47
2022-11-15T21:36:05.979Z,75.30
2022-11-15T21:38:32.905Z,75.18
2022-11-15T21:41:03.030Z,74.92
2022-11-15T21:43:29.671Z,75.10
2022-11-15T21:46:00.013Z,75.09
2022-11-15T21:48:28.639Z,75.06
2022-11-15T21:51:03.267Z,74.54
2022-11-15T21:53:31.455Z,75.25
2022-11-15T21:55:58.903Z,75.07
2022-11-15T21:58:25.715Z,75.54
2022-11-15T22:01:13.104Z,75.74
2022-11-15T22:03:40.368Z,75.84
2022-11-15T22:06:07.188Z,75.97
2022-11-15T22:08:34.073Z,76.00
2022-11-15T22:11:02.336Z,75.77
2022-11-15T22:13:28.964Z,75.61
2022-11-15T22:15:56.329Z,75.62
2022-11-15T22:18:27.335Z,75.83
2022-11-15T22:21:03.332Z,75.99
2022-11-15T22:23:31.828Z,75.64
2022-11-15T22:25:58.884Z,75.93
2022-11-15T22:28:26.037Z,75.92
2022-11-15T22:30:54.783Z,75.92
2022-11-15T22:33:27.438Z,75.50
2022-11-15T22:35:54.949Z,75.54
2022-11-15T22:38:21.806Z,75.92
2022-11-15T22:40:48.636Z,75.65
2022-11-15T22:43:18.654Z,75.90
2022-11-15T22:45:51.654Z,75.67
2022-11-15T22:48:21.110Z,75.83
2022-11-15T22:50:48.176Z,75.92
2022-11-15T22:53:14.933Z,76.25
2022-11-15T22:55:42.091Z,76.26
2022-11-15T22:58:09.236Z,76.14
2022-11-15T23:00:37.261Z,76.08
2022-11-15T23:03:04.207Z,76.18
2022-11-15T23:05:30.955Z,76.22
2022-11-15T23:07:57.833Z,76.24
2022-11-15T23:10:42.896Z,76.31
2022-11-15T23:13:16.737Z,76.35
2022-11-15T23:16:08.540Z,76.17
2022-11-15T23:18:41.695Z,76.21
2022-11-15T23:21:13.288Z,76.40
2022-11-15T23:23:40.725Z,76.23
2022-11-15T23:26:09.023Z,76.79
2022-11-15T23:28:36.065Z,76.72
2022-11-15T23:31:26.378Z,77.02
2022-11-15T23:33:58.929Z,76.79
2022-11-15T23:36:27.406Z,76.91
2022-11-15T23:38:54.732Z,76.87
2022-11-15T23:41:23.698Z,77.30
2022-11-15T23:43:51.485Z,77.34
2022-11-15T23:46:18.241Z,77.32
2022-11-15T23:48:45.007Z,77.67
2022-11-15T23:51:11.754Z,77.47
2022-11-15T23:53:38.518Z,77.78
2022-11-15T23:56:09.433Z,77.63
2022-11-15T23:58:36.615Z,77.70
